sensor_id;sensor_type;location;lat;lon;timestamp;P1;durP1;ratioP1;P2;durP2;ratioP2
76636;SDS011;65532;52.124;5.480;2023-09-12T00:02:12;31.58;;;17.02;;
76636;SDS011;65532;52.124;5.480;2023-09-12T00:04:38;29.75;;;15.35;;
76636;SDS011;65532;52.124;5.480;2023-09-12T00:07:05;30.77;;;15.30;;
76636;SDS011;65532;52.124;5.480;2023-09-12T00:09:31;33.13;;;18.92;;
76636;SDS011;65532;52.124;5.480;2023-09-12T00:11:58;33.15;;;17.63;;
76636;SDS011;65532;52.124;5.480;2023-09-12T00:14:24;31.98;;;13.88;;
76636;SDS011;65532;52.124;5.480;2023-09-12T00:16:51;34.50;;;16.60;;
76636;SDS011;65532;52.124;5.480;2023-09-12T00:19:21;32.30;;;16.40;;
76636;SDS011;65532;52.124;5.480;2023-09-12T00:21:48;30.35;;;16.98;;
76636;SDS011;65532;52.124;5.480;2023-09-12T00:24:14;30.25;;;14.20;;
76636;SDS011;65532;52.124;5.480;2023-09-12T00:26:41;26.42;;;15.50;;
76636;SDS011;65532;52.124;5.480;2023-09-12T00:29:07;26.27;;;12.55;;
76636;SDS011;65532;52.124;5.480;2023-09-12T00:31:34;25.50;;;12.45;;
76636;SDS011;65532;52.124;5.480;2023-09-12T00:34:01;26.52;;;12.02;;
76636;SDS011;65532;52.124;5.480;2023-09-12T00:36:28;21.77;;;10.52;;
76636;SDS011;65532;52.124;5.480;2023-09-12T00:38:56;17.67;;;9.68;;
76636;SDS011;65532;52.124;5.480;2023-09-12T00:41:23;23.13;;;13.88;;
76636;SDS011;65532;52.124;5.480;2023-09-12T00:43:49;18.35;;;11.23;;
76636;SDS011;65532;52.124;5.480;2023-09-12T00:46:18;31.55;;;12.43;;
76636;SDS011;65532;52.124;5.480;2023-09-12T00:48:45;16.73;;;9.82;;
76636;SDS011;65532;52.124;5.480;2023-09-12T00:51:14;21.45;;;11.40;;
76636;SDS011;65532;52.124;5.480;2023-09-12T00:53:42;19.45;;;11.40;;
76636;SDS011;65532;52.124;5.480;2023-09-12T00:56:09;20.83;;;12.30;;
76636;SDS011;65532;52.124;5.480;2023-09-12T00:58:36;21.35;;;12.50;;
76636;SDS011;65532;52.124;5.480;2023-09-12T01:01:03;25.08;;;12.73;;
76636;SDS011;65532;52.124;5.480;2023-09-12T01:03:30;25.35;;;13.35;;
76636;SDS011;65532;52.124;5.480;2023-09-12T01:05:58;24.83;;;14.30;;
76636;SDS011;65532;52.124;5.480;2023-09-12T01:08:26;29.55;;;13.40;;
76636;SDS011;65532;52.124;5.480;2023-09-12T01:10:54;28.45;;;14.68;;
76636;SDS011;65532;52.124;5.480;2023-09-12T01:13:23;22.40;;;11.52;;
76636;SDS011;65532;52.124;5.480;2023-09-12T01:15:49;18.98;;;10.77;;
76636;SDS011;65532;52.124;5.480;2023-09-12T01:18:16;20.60;;;10.30;;
76636;SDS011;65532;52.124;5.480;2023-09-12T01:20:47;21.83;;;12.40;;
76636;SDS011;65532;52.124;5.480;2023-09-12T01:23:47;17.67;;;9.40;;
76636;SDS011;65532;52.124;5.480;2023-09-12T01:29:12;20.75;;;11.80;;
76636;SDS011;65532;52.124;5.480;2023-09-12T01:31:41;27.63;;;14.00;;
76636;SDS011;65532;52.124;5.480;2023-09-12T01:34:10;19.83;;;11.45;;
76636;SDS011;65532;52.124;5.480;2023-09-12T01:36:37;18.33;;;11.20;;
76636;SDS011;65532;52.124;5.480;2023-09-12T01:39:04;19.88;;;12.25;;
76636;SDS011;65532;52.124;5.480;2023-09-12T01:41:32;24.35;;;12.65;;
76636;SDS011;65532;52.124;5.480;2023-09-12T01:46:28;18.73;;;10.70;;
76636;SDS011;65532;52.124;5.480;2023-09-12T01:48:57;19.50;;;10.18;;
76636;SDS011;65532;52.124;5.480;2023-09-12T01:51:26;19.25;;;10.05;;
76636;SDS011;65532;52.124;5.480;2023-09-12T01:53:54;20.45;;;11.27;;
76636;SDS011;65532;52.124;5.480;2023-09-12T01:56:22;21.75;;;10.57;;
76636;SDS011;65532;52.124;5.480;2023-09-12T01:58:49;21.88;;;11.32;;
76636;SDS011;65532;52.124;5.480;2023-09-12T02:01:16;66.07;;;14.60;;
76636;SDS011;65532;52.124;5.480;2023-09-12T02:03:43;29.90;;;12.55;;
76636;SDS011;65532;52.124;5.480;2023-09-12T02:06:10;30.70;;;13.07;;
76636;SDS011;65532;52.124;5.480;2023-09-12T02:08:37;40.55;;;11.05;;
76636;SDS011;65532;52.124;5.480;2023-09-12T02:11:04;21.67;;;10.90;;
76636;SDS011;65532;52.124;5.480;2023-09-12T02:13:30;35.78;;;12.27;;
76636;SDS011;65532;52.124;5.480;2023-09-12T02:16:00;28.40;;;11.38;;
76636;SDS011;65532;52.124;5.480;2023-09-12T02:18:27;22.33;;;10.45;;
76636;SDS011;65532;52.124;5.480;2023-09-12T02:20:54;19.63;;;11.73;;
76636;SDS011;65532;52.124;5.480;2023-09-12T02:23:21;21.08;;;11.70;;
76636;SDS011;65532;52.124;5.480;2023-09-12T02:25:47;20.23;;;11.57;;
76636;SDS011;65532;52.124;5.480;2023-09-12T02:28:14;22.83;;;11.32;;
76636;SDS011;65532;52.124;5.480;2023-09-12T02:30:40;21.63;;;9.40;;
76636;SDS011;65532;52.124;5.480;2023-09-12T02:33:07;15.35;;;8.95;;
76636;SDS011;65532;52.124;5.480;2023-09-12T02:35:34;28.20;;;9.55;;
76636;SDS011;65532;52.124;5.480;2023-09-12T02:38:00;44.65;;;10.50;;
76636;SDS011;65532;52.124;5.480;2023-09-12T02:40:27;30.80;;;9.10;;
76636;SDS011;65532;52.124;5.480;2023-09-12T02:42:54;42.83;;;10.10;;
76636;SDS011;65532;52.124;5.480;2023-09-12T02:45:20;15.50;;;8.95;;
76636;SDS011;65532;52.124;5.480;2023-09-12T02:47:47;15.82;;;8.20;;
76636;SDS011;65532;52.124;5.480;2023-09-12T02:50:13;21.33;;;9.70;;
76636;SDS011;65532;52.124;5.480;2023-09-12T02:52:40;26.48;;;9.88;;
76636;SDS011;65532;52.124;5.480;2023-09-12T02:55:06;23.35;;;10.05;;
76636;SDS011;65532;52.124;5.480;2023-09-12T02:57:33;24.27;;;10.43;;
76636;SDS011;65532;52.124;5.480;2023-09-12T03:00:00;15.43;;;8.57;;
76636;SDS011;65532;52.124;5.480;2023-09-12T03:02:26;28.00;;;9.35;;
76636;SDS011;65532;52.124;5.480;2023-09-12T03:04:55;19.23;;;10.65;;
76636;SDS011;65532;52.124;5.480;2023-09-12T03:07:21;16.38;;;9.43;;
76636;SDS011;65532;52.124;5.480;2023-09-12T03:09:48;14.77;;;8.68;;
76636;SDS011;65532;52.124;5.480;2023-09-12T03:12:16;13.55;;;8.43;;
76636;SDS011;65532;52.124;5.480;2023-09-12T03:14:42;13.00;;;8.50;;
76636;SDS011;65532;52.124;5.480;2023-09-12T03:17:09;13.45;;;7.50;;
76636;SDS011;65532;52.124;5.480;2023-09-12T03:19:35;12.65;;;8.43;;
76636;SDS011;65532;52.124;5.480;2023-09-12T03:22:03;18.50;;;8.65;;
76636;SDS011;65532;52.124;5.480;2023-09-12T03:24:30;16.13;;;8.35;;
76636;SDS011;65532;52.124;5.480;2023-09-12T03:26:57;17.63;;;9.15;;
76636;SDS011;65532;52.124;5.480;2023-09-12T03:29:23;14.75;;;9.40;;
76636;SDS011;65532;52.124;5.480;2023-09-12T03:31:50;12.32;;;9.23;;
76636;SDS011;65532;52.124;5.480;2023-09-12T03:34:17;11.63;;;8.07;;
76636;SDS011;65532;52.124;5.480;2023-09-12T03:36:43;13.23;;;8.10;;
76636;SDS011;65532;52.124;5.480;2023-09-12T03:39:10;12.63;;;7.95;;
76636;SDS011;65532;52.124;5.480;2023-09-12T03:41:39;10.52;;;6.03;;
76636;SDS011;65532;52.124;5.480;2023-09-12T03:44:06;13.60;;;8.68;;
76636;SDS011;65532;52.124;5.480;2023-09-12T03:46:33;11.07;;;7.18;;
76636;SDS011;65532;52.124;5.480;2023-09-12T03:49:00;12.52;;;8.82;;
76636;SDS011;65532;52.124;5.480;2023-09-12T03:51:26;11.85;;;6.95;;
76636;SDS011;65532;52.124;5.480;2023-09-12T03:53:53;10.88;;;6.43;;
76636;SDS011;65532;52.124;5.480;2023-09-12T03:56:19;12.90;;;6.28;;
76636;SDS011;65532;52.124;5.480;2023-09-12T03:58:47;13.02;;;7.43;;
76636;SDS011;65532;52.124;5.480;2023-09-12T04:01:13;14.88;;;9.18;;
76636;SDS011;65532;52.124;5.480;2023-09-12T04:03:40;13.60;;;7.82;;
76636;SDS011;65532;52.124;5.480;2023-09-12T04:06:08;14.40;;;8.07;;
76636;SDS011;65532;52.124;5.480;2023-09-12T04:08:34;14.45;;;7.85;;
76636;SDS011;65532;52.124;5.480;2023-09-12T04:11:01;14.88;;;9.07;;
76636;SDS011;65532;52.124;5.480;2023-09-12T04:13:27;15.93;;;9.50;;
76636;SDS011;65532;52.124;5.480;2023-09-12T04:15:54;15.43;;;8.98;;
76636;SDS011;65532;52.124;5.480;2023-09-12T04:18:20;15.77;;;7.97;;
76636;SDS011;65532;52.124;5.480;2023-09-12T04:20:47;14.07;;;8.75;;
76636;SDS011;65532;52.124;5.480;2023-09-12T04:23:14;17.67;;;9.90;;
76636;SDS011;65532;52.124;5.480;2023-09-12T04:25:45;14.32;;;8.13;;
76636;SDS011;65532;52.124;5.480;2023-09-12T04:28:12;14.40;;;7.55;;
76636;SDS011;65532;52.124;5.480;2023-09-12T04:30:39;14.27;;;8.38;;
76636;SDS011;65532;52.124;5.480;2023-09-12T04:33:06;16.55;;;8.75;;
76636;SDS011;65532;52.124;5.480;2023-09-12T04:35:33;23.02;;;10.73;;
76636;SDS011;65532;52.124;5.480;2023-09-12T04:38:00;30.10;;;11.88;;
76636;SDS011;65532;52.124;5.480;2023-09-12T04:40:27;33.88;;;10.10;;
76636;SDS011;65532;52.124;5.480;2023-09-12T04:42:54;26.75;;;10.43;;
76636;SDS011;65532;52.124;5.480;2023-09-12T04:45:20;19.65;;;10.65;;
76636;SDS011;65532;52.124;5.480;2023-09-12T04:47:47;25.13;;;10.73;;
76636;SDS011;65532;52.124;5.480;2023-09-12T04:50:14;15.05;;;8.00;;
76636;SDS011;65532;52.124;5.480;2023-09-12T04:52:40;17.38;;;8.45;;
76636;SDS011;65532;52.124;5.480;2023-09-12T04:55:07;20.05;;;8.88;;
76636;SDS011;65532;52.124;5.480;2023-09-12T04:57:34;25.92;;;10.10;;
76636;SDS011;65532;52.124;5.480;2023-09-12T05:00:01;20.42;;;9.20;;
76636;SDS011;65532;52.124;5.480;2023-09-12T05:02:28;25.33;;;8.63;;
76636;SDS011;65532;52.124;5.480;2023-09-12T05:04:54;16.27;;;9.00;;
76636;SDS011;65532;52.124;5.480;2023-09-12T05:07:22;17.75;;;8.75;;
76636;SDS011;65532;52.124;5.480;2023-09-12T05:09:49;16.75;;;9.32;;
76636;SDS011;65532;52.124;5.480;2023-09-12T05:12:16;28.13;;;9.05;;
76636;SDS011;65532;52.124;5.480;2023-09-12T05:14:43;19.08;;;9.57;;
76636;SDS011;65532;52.124;5.480;2023-09-12T05:17:10;19.30;;;9.68;;
76636;SDS011;65532;52.124;5.480;2023-09-12T05:19:36;19.83;;;9.15;;
76636;SDS011;65532;52.124;5.480;2023-09-12T05:22:03;21.73;;;10.75;;
76636;SDS011;65532;52.124;5.480;2023-09-12T05:24:29;21.48;;;9.68;;
76636;SDS011;65532;52.124;5.480;2023-09-12T05:26:56;18.88;;;10.30;;
76636;SDS011;65532;52.124;5.480;2023-09-12T05:29:23;19.15;;;10.43;;
76636;SDS011;65532;52.124;5.480;2023-09-12T05:31:49;23.00;;;10.20;;
76636;SDS011;65532;52.124;5.480;2023-09-12T05:34:16;26.08;;;12.95;;
76636;SDS011;65532;52.124;5.480;2023-09-12T05:36:42;18.85;;;10.30;;
76636;SDS011;65532;52.124;5.480;2023-09-12T05:39:09;19.45;;;10.00;;
76636;SDS011;65532;52.124;5.480;2023-09-12T05:41:36;17.92;;;9.43;;
76636;SDS011;65532;52.124;5.480;2023-09-12T05:44:02;19.42;;;10.52;;
76636;SDS011;65532;52.124;5.480;2023-09-12T05:46:30;19.50;;;11.07;;
76636;SDS011;65532;52.124;5.480;2023-09-12T05:48:56;20.25;;;9.68;;
76636;SDS011;65532;52.124;5.480;2023-09-12T05:51:23;18.30;;;10.45;;
76636;SDS011;65532;52.124;5.480;2023-09-12T05:53:49;20.63;;;11.65;;
76636;SDS011;65532;52.124;5.480;2023-09-12T05:56:16;23.75;;;12.75;;
76636;SDS011;65532;52.124;5.480;2023-09-12T05:58:43;21.42;;;10.13;;
76636;SDS011;65532;52.124;5.480;2023-09-12T06:01:10;28.08;;;12.45;;
76636;SDS011;65532;52.124;5.480;2023-09-12T06:03:37;33.28;;;13.73;;
76636;SDS011;65532;52.124;5.480;2023-09-12T06:06:04;30.20;;;14.07;;
76636;SDS011;65532;52.124;5.480;2023-09-12T06:08:30;44.35;;;13.65;;
76636;SDS011;65532;52.124;5.480;2023-09-12T06:10:57;26.92;;;12.02;;
76636;SDS011;65532;52.124;5.480;2023-09-12T06:13:23;24.05;;;11.23;;
76636;SDS011;65532;52.124;5.480;2023-09-12T06:15:51;27.92;;;12.85;;
76636;SDS011;65532;52.124;5.480;2023-09-12T06:18:17;24.02;;;11.65;;
76636;SDS011;65532;52.124;5.480;2023-09-12T06:20:46;26.13;;;12.52;;
76636;SDS011;65532;52.124;5.480;2023-09-12T06:23:12;24.90;;;12.93;;
76636;SDS011;65532;52.124;5.480;2023-09-12T06:25:39;25.60;;;14.43;;
76636;SDS011;65532;52.124;5.480;2023-09-12T06:28:08;24.90;;;12.70;;
76636;SDS011;65532;52.124;5.480;2023-09-12T06:30:35;24.40;;;12.77;;
76636;SDS011;65532;52.124;5.480;2023-09-12T06:33:02;26.02;;;12.38;;
76636;SDS011;65532;52.124;5.480;2023-09-12T06:35:28;25.13;;;12.52;;
76636;SDS011;65532;52.124;5.480;2023-09-12T06:37:55;24.00;;;13.45;;
76636;SDS011;65532;52.124;5.480;2023-09-12T06:40:23;26.90;;;13.07;;
76636;SDS011;65532;52.124;5.480;2023-09-12T06:42:49;23.75;;;12.38;;
76636;SDS011;65532;52.124;5.480;2023-09-12T06:45:16;22.25;;;11.95;;
76636;SDS011;65532;52.124;5.480;2023-09-12T06:47:42;27.35;;;13.02;;
76636;SDS011;65532;52.124;5.480;2023-09-12T06:50:09;26.48;;;13.02;;
76636;SDS011;65532;52.124;5.480;2023-09-12T06:52:41;26.25;;;13.88;;
76636;SDS011;65532;52.124;5.480;2023-09-12T06:55:07;29.45;;;14.73;;
76636;SDS011;65532;52.124;5.480;2023-09-12T06:57:34;26.48;;;14.57;;
76636;SDS011;65532;52.124;5.480;2023-09-12T07:00:01;33.53;;;15.38;;
76636;SDS011;65532;52.124;5.480;2023-09-12T07:02:32;29.45;;;14.50;;
76636;SDS011;65532;52.124;5.480;2023-09-12T07:04:59;31.75;;;14.57;;
76636;SDS011;65532;52.124;5.480;2023-09-12T07:07:26;33.42;;;15.05;;
76636;SDS011;65532;52.124;5.480;2023-09-12T07:09:52;32.65;;;16.58;;
76636;SDS011;65532;52.124;5.480;2023-09-12T07:12:29;30.27;;;14.52;;
76636;SDS011;65532;52.124;5.480;2023-09-12T07:14:56;33.58;;;18.42;;
76636;SDS011;65532;52.124;5.480;2023-09-12T07:17:23;35.47;;;15.57;;
76636;SDS011;65532;52.124;5.480;2023-09-12T07:19:49;35.13;;;16.73;;
76636;SDS011;65532;52.124;5.480;2023-09-12T07:22:17;37.83;;;15.88;;
76636;SDS011;65532;52.124;5.480;2023-09-12T07:24:43;39.15;;;15.82;;
76636;SDS011;65532;52.124;5.480;2023-09-12T07:27:10;33.05;;;16.45;;
76636;SDS011;65532;52.124;5.480;2023-09-12T07:29:37;39.45;;;19.17;;
76636;SDS011;65532;52.124;5.480;2023-09-12T07:32:04;35.15;;;17.50;;
76636;SDS011;65532;52.124;5.480;2023-09-12T07:34:31;40.00;;;17.50;;
76636;SDS011;65532;52.124;5.480;2023-09-12T07:36:57;35.10;;;16.10;;
76636;SDS011;65532;52.124;5.480;2023-09-12T07:39:24;37.63;;;17.33;;
76636;SDS011;65532;52.124;5.480;2023-09-12T07:41:50;35.10;;;17.98;;
76636;SDS011;65532;52.124;5.480;2023-09-12T07:44:17;34.30;;;16.10;;
76636;SDS011;65532;52.124;5.480;2023-09-12T07:46:43;35.92;;;17.20;;
76636;SDS011;65532;52.124;5.480;2023-09-12T07:49:10;37.53;;;16.23;;
76636;SDS011;65532;52.124;5.480;2023-09-12T07:51:37;33.78;;;16.70;;
76636;SDS011;65532;52.124;5.480;2023-09-12T07:54:03;32.30;;;16.40;;
76636;SDS011;65532;52.124;5.480;2023-09-12T07:56:30;34.60;;;17.75;;
76636;SDS011;65532;52.124;5.480;2023-09-12T07:58:57;33.40;;;17.48;;
76636;SDS011;65532;52.124;5.480;2023-09-12T08:01:23;36.38;;;17.42;;
76636;SDS011;65532;52.124;5.480;2023-09-12T08:03:50;33.97;;;16.10;;
76636;SDS011;65532;52.124;5.480;2023-09-12T08:06:17;37.67;;;16.52;;
76636;SDS011;65532;52.124;5.480;2023-09-12T08:08:43;33.70;;;16.27;;
76636;SDS011;65532;52.124;5.480;2023-09-12T08:11:11;28.77;;;15.88;;
76636;SDS011;65532;52.124;5.480;2023-09-12T08:13:38;33.15;;;14.18;;
76636;SDS011;65532;52.124;5.480;2023-09-12T08:16:04;29.23;;;15.48;;
76636;SDS011;65532;52.124;5.480;2023-09-12T08:18:31;31.08;;;15.95;;
76636;SDS011;65532;52.124;5.480;2023-09-12T08:20:57;27.50;;;14.25;;
76636;SDS011;65532;52.124;5.480;2023-09-12T08:23:24;22.90;;;13.77;;
76636;SDS011;65532;52.124;5.480;2023-09-12T08:25:51;26.52;;;14.30;;
76636;SDS011;65532;52.124;5.480;2023-09-12T08:28:17;26.45;;;13.93;;
76636;SDS011;65532;52.124;5.480;2023-09-12T08:30:47;26.00;;;13.48;;
76636;SDS011;65532;52.124;5.480;2023-09-12T08:33:14;28.65;;;13.45;;
76636;SDS011;65532;52.124;5.480;2023-09-12T08:35:41;25.17;;;14.50;;
76636;SDS011;65532;52.124;5.480;2023-09-12T08:38:07;26.77;;;14.10;;
76636;SDS011;65532;52.124;5.480;2023-09-12T08:40:35;28.70;;;16.00;;
76636;SDS011;65532;52.124;5.480;2023-09-12T08:43:02;29.23;;;16.13;;
76636;SDS011;65532;52.124;5.480;2023-09-12T08:45:31;26.08;;;13.60;;
76636;SDS011;65532;52.124;5.480;2023-09-12T08:47:59;25.85;;;13.60;;
76636;SDS011;65532;52.124;5.480;2023-09-12T08:50:27;26.85;;;15.20;;
76636;SDS011;65532;52.124;5.480;2023-09-12T08:52:59;24.67;;;15.25;;
76636;SDS011;65532;52.124;5.480;2023-09-12T08:55:33;26.67;;;14.27;;
76636;SDS011;65532;52.124;5.480;2023-09-12T08:58:04;24.42;;;15.63;;
76636;SDS011;65532;52.124;5.480;2023-09-12T09:00:32;24.92;;;14.48;;
76636;SDS011;65532;52.124;5.480;2023-09-12T09:03:00;24.75;;;13.20;;
76636;SDS011;65532;52.124;5.480;2023-09-12T09:05:29;24.52;;;13.77;;
76636;SDS011;65532;52.124;5.480;2023-09-12T09:07:56;25.42;;;14.68;;
76636;SDS011;65532;52.124;5.480;2023-09-12T09:10:25;22.92;;;13.90;;
76636;SDS011;65532;52.124;5.480;2023-09-12T09:13:13;22.85;;;12.18;;
76636;SDS011;65532;52.124;5.480;2023-09-12T09:15:39;25.08;;;11.93;;
76636;SDS011;65532;52.124;5.480;2023-09-12T09:18:08;20.40;;;11.68;;
76636;SDS011;65532;52.124;5.480;2023-09-12T09:20:37;24.42;;;12.13;;
76636;SDS011;65532;52.124;5.480;2023-09-12T09:23:05;23.25;;;13.43;;
76636;SDS011;65532;52.124;5.480;2023-09-12T09:25:41;27.73;;;14.70;;
76636;SDS011;65532;52.124;5.480;2023-09-12T09:28:26;24.92;;;13.45;;
76636;SDS011;65532;52.124;5.480;2023-09-12T09:30:54;24.38;;;12.57;;
76636;SDS011;65532;52.124;5.480;2023-09-12T09:33:21;23.05;;;13.55;;
76636;SDS011;65532;52.124;5.480;2023-09-12T09:35:48;26.52;;;12.50;;
76636;SDS011;65532;52.124;5.480;2023-09-12T09:38:18;26.95;;;14.07;;
76636;SDS011;65532;52.124;5.480;2023-09-12T09:40:45;23.30;;;12.63;;
76636;SDS011;65532;52.124;5.480;2023-09-12T09:43:12;26.73;;;15.10;;
76636;SDS011;65532;52.124;5.480;2023-09-12T09:45:42;27.27;;;13.45;;
76636;SDS011;65532;52.124;5.480;2023-09-12T09:48:17;25.25;;;12.25;;
76636;SDS011;65532;52.124;5.480;2023-09-12T09:50:48;23.58;;;13.18;;
76636;SDS011;65532;52.124;5.480;2023-09-12T09:53:15;26.63;;;14.82;;
76636;SDS011;65532;52.124;5.480;2023-09-12T09:55:41;26.95;;;15.43;;
76636;SDS011;65532;52.124;5.480;2023-09-12T09:58:14;25.65;;;15.13;;
76636;SDS011;65532;52.124;5.480;2023-09-12T10:00:45;25.98;;;13.35;;
76636;SDS011;65532;52.124;5.480;2023-09-12T10:03:15;29.13;;;14.45;;
76636;SDS011;65532;52.124;5.480;2023-09-12T10:05:47;27.65;;;15.32;;
76636;SDS011;65532;52.124;5.480;2023-09-12T10:08:17;24.80;;;13.88;;
76636;SDS011;65532;52.124;5.480;2023-09-12T10:10:45;27.50;;;14.60;;
76636;SDS011;65532;52.124;5.480;2023-09-12T10:13:13;26.13;;;14.40;;
76636;SDS011;65532;52.124;5.480;2023-09-12T10:15:42;28.88;;;15.93;;
76636;SDS011;65532;52.124;5.480;2023-09-12T10:18:12;25.65;;;14.60;;
76636;SDS011;65532;52.124;5.480;2023-09-12T10:20:55;29.05;;;14.23;;
76636;SDS011;65532;52.124;5.480;2023-09-12T10:23:34;25.88;;;15.57;;
76636;SDS011;65532;52.124;5.480;2023-09-12T10:26:09;25.27;;;15.07;;
76636;SDS011;65532;52.124;5.480;2023-09-12T10:31:08;27.42;;;16.33;;
76636;SDS011;65532;52.124;5.480;2023-09-12T10:33:38;22.48;;;13.60;;
76636;SDS011;65532;52.124;5.480;2023-09-12T10:36:05;30.25;;;16.52;;
76636;SDS011;65532;52.124;5.480;2023-09-12T10:38:36;26.63;;;13.35;;
76636;SDS011;65532;52.124;5.480;2023-09-12T10:41:07;24.08;;;12.13;;
76636;SDS011;65532;52.124;5.480;2023-09-12T10:43:37;22.35;;;12.45;;
76636;SDS011;65532;52.124;5.480;2023-09-12T10:46:06;25.88;;;13.05;;
76636;SDS011;65532;52.124;5.480;2023-09-12T10:48:34;27.13;;;13.68;;
76636;SDS011;65532;52.124;5.480;2023-09-12T10:51:06;25.50;;;15.45;;
76636;SDS011;65532;52.124;5.480;2023-09-12T10:53:34;25.55;;;16.30;;
76636;SDS011;65532;52.124;5.480;2023-09-12T10:59:08;25.63;;;12.18;;
76636;SDS011;65532;52.124;5.480;2023-09-12T11:01:31;26.23;;;12.40;;
76636;SDS011;65532;52.124;5.480;2023-09-12T11:03:58;24.25;;;14.18;;
76636;SDS011;65532;52.124;5.480;2023-09-12T11:06:31;24.95;;;13.35;;
76636;SDS011;65532;52.124;5.480;2023-09-12T11:09:15;21.48;;;12.57;;
76636;SDS011;65532;52.124;5.480;2023-09-12T11:11:47;20.25;;;11.20;;
76636;SDS011;65532;52.124;5.480;2023-09-12T11:14:15;23.27;;;11.75;;
76636;SDS011;65532;52.124;5.480;2023-09-12T11:19:43;24.27;;;13.90;;
76636;SDS011;65532;52.124;5.480;2023-09-12T11:22:20;24.48;;;12.85;;
76636;SDS011;65532;52.124;5.480;2023-09-12T11:24:47;26.02;;;11.85;;
76636;SDS011;65532;52.124;5.480;2023-09-12T11:27:14;22.33;;;11.35;;
76636;SDS011;65532;52.124;5.480;2023-09-12T11:29:40;20.17;;;11.40;;
76636;SDS011;65532;52.124;5.480;2023-09-12T11:32:07;20.77;;;12.45;;
76636;SDS011;65532;52.124;5.480;2023-09-12T11:34:41;20.08;;;11.65;;
76636;SDS011;65532;52.124;5.480;2023-09-12T11:37:08;18.73;;;10.45;;
76636;SDS011;65532;52.124;5.480;2023-09-12T11:39:36;17.02;;;9.75;;
76636;SDS011;65532;52.124;5.480;2023-09-12T11:42:07;18.70;;;9.82;;
76636;SDS011;65532;52.124;5.480;2023-09-12T11:44:38;18.00;;;9.30;;
76636;SDS011;65532;52.124;5.480;2023-09-12T11:47:04;21.35;;;10.07;;
76636;SDS011;65532;52.124;5.480;2023-09-12T11:49:36;21.55;;;11.90;;
76636;SDS011;65532;52.124;5.480;2023-09-12T11:52:07;19.05;;;11.27;;
76636;SDS011;65532;52.124;5.480;2023-09-12T11:54:43;21.98;;;12.70;;
76636;SDS011;65532;52.124;5.480;2023-09-12T11:57:12;19.27;;;10.27;;
76636;SDS011;65532;52.124;5.480;2023-09-12T11:59:41;21.23;;;11.65;;
76636;SDS011;65532;52.124;5.480;2023-09-12T12:02:11;21.50;;;10.82;;
76636;SDS011;65532;52.124;5.480;2023-09-12T12:04:38;19.35;;;11.43;;
76636;SDS011;65532;52.124;5.480;2023-09-12T12:07:05;21.17;;;12.27;;
76636;SDS011;65532;52.124;5.480;2023-09-12T12:09:33;17.58;;;9.95;;
76636;SDS011;65532;52.124;5.480;2023-09-12T12:12:08;18.33;;;11.10;;
76636;SDS011;65532;52.124;5.480;2023-09-12T12:14:36;18.33;;;11.18;;
76636;SDS011;65532;52.124;5.480;2023-09-12T12:17:06;17.45;;;9.90;;
76636;SDS011;65532;52.124;5.480;2023-09-12T12:19:37;19.08;;;10.70;;
76636;SDS011;65532;52.124;5.480;2023-09-12T12:22:04;20.35;;;9.80;;
76636;SDS011;65532;52.124;5.480;2023-09-12T12:24:45;18.13;;;9.10;;
76636;SDS011;65532;52.124;5.480;2023-09-12T12:27:14;17.10;;;8.63;;
76636;SDS011;65532;52.124;5.480;2023-09-12T12:29:41;16.30;;;9.27;;
76636;SDS011;65532;52.124;5.480;2023-09-12T12:32:10;16.52;;;8.27;;
76636;SDS011;65532;52.124;5.480;2023-09-12T12:34:37;19.45;;;11.25;;
76636;SDS011;65532;52.124;5.480;2023-09-12T12:37:29;16.30;;;9.38;;
76636;SDS011;65532;52.124;5.480;2023-09-12T12:39:57;14.00;;;8.55;;
76636;SDS011;65532;52.124;5.480;2023-09-12T12:42:25;12.65;;;5.07;;
76636;SDS011;65532;52.124;5.480;2023-09-12T12:45:14;13.05;;;6.43;;
76636;SDS011;65532;52.124;5.480;2023-09-12T12:47:55;10.60;;;4.60;;
76636;SDS011;65532;52.124;5.480;2023-09-12T12:50:26;13.45;;;6.85;;
76636;SDS011;65532;52.124;5.480;2023-09-12T12:52:53;12.38;;;6.35;;
76636;SDS011;65532;52.124;5.480;2023-09-12T12:55:20;8.35;;;3.85;;
76636;SDS011;65532;52.124;5.480;2023-09-12T12:57:48;7.55;;;4.00;;
76636;SDS011;65532;52.124;5.480;2023-09-12T13:00:16;9.13;;;4.63;;
76636;SDS011;65532;52.124;5.480;2023-09-12T13:02:45;6.53;;;3.80;;
76636;SDS011;65532;52.124;5.480;2023-09-12T13:05:25;6.35;;;2.88;;
76636;SDS011;65532;52.124;5.480;2023-09-12T13:07:53;9.60;;;5.40;;
76636;SDS011;65532;52.124;5.480;2023-09-12T13:10:20;7.65;;;3.42;;
76636;SDS011;65532;52.124;5.480;2023-09-12T13:12:47;4.93;;;2.90;;
76636;SDS011;65532;52.124;5.480;2023-09-12T13:15:15;5.30;;;2.40;;
76636;SDS011;65532;52.124;5.480;2023-09-12T13:17:43;4.78;;;2.30;;
76636;SDS011;65532;52.124;5.480;2023-09-12T13:20:10;4.57;;;1.73;;
76636;SDS011;65532;52.124;5.480;2023-09-12T13:22:37;5.13;;;1.67;;
76636;SDS011;65532;52.124;5.480;2023-09-12T13:25:04;5.07;;;2.28;;
76636;SDS011;65532;52.124;5.480;2023-09-12T13:27:32;5.30;;;2.72;;
76636;SDS011;65532;52.124;5.480;2023-09-12T13:29:59;6.68;;;4.10;;
76636;SDS011;65532;52.124;5.480;2023-09-12T13:32:26;8.77;;;4.05;;
76636;SDS011;65532;52.124;5.480;2023-09-12T13:34:52;7.38;;;4.60;;
76636;SDS011;65532;52.124;5.480;2023-09-12T13:37:19;8.60;;;3.58;;
76636;SDS011;65532;52.124;5.480;2023-09-12T13:39:47;7.03;;;2.75;;
76636;SDS011;65532;52.124;5.480;2023-09-12T13:42:16;5.25;;;2.33;;
76636;SDS011;65532;52.124;5.480;2023-09-12T13:44:47;6.35;;;3.60;;
76636;SDS011;65532;52.124;5.480;2023-09-12T13:47:14;7.88;;;3.65;;
76636;SDS011;65532;52.124;5.480;2023-09-12T13:49:49;5.47;;;2.42;;
76636;SDS011;65532;52.124;5.480;2023-09-12T13:52:22;7.38;;;3.63;;
76636;SDS011;65532;52.124;5.480;2023-09-12T13:54:49;9.07;;;5.15;;
76636;SDS011;65532;52.124;5.480;2023-09-12T13:57:16;10.63;;;5.43;;
76636;SDS011;65532;52.124;5.480;2023-09-12T13:59:43;11.20;;;5.80;;
76636;SDS011;65532;52.124;5.480;2023-09-12T14:02:12;9.60;;;4.90;;
76636;SDS011;65532;52.124;5.480;2023-09-12T14:04:39;12.18;;;5.35;;
76636;SDS011;65532;52.124;5.480;2023-09-12T14:07:07;13.85;;;6.47;;
76636;SDS011;65532;52.124;5.480;2023-09-12T14:09:34;12.80;;;5.50;;
76636;SDS011;65532;52.124;5.480;2023-09-12T14:12:02;10.95;;;4.78;;
76636;SDS011;65532;52.124;5.480;2023-09-12T14:14:32;14.60;;;7.43;;
76636;SDS011;65532;52.124;5.480;2023-09-12T14:16:59;12.30;;;7.35;;
76636;SDS011;65532;52.124;5.480;2023-09-12T14:19:27;12.80;;;6.43;;
76636;SDS011;65532;52.124;5.480;2023-09-12T14:21:55;16.73;;;7.43;;
76636;SDS011;65532;52.124;5.480;2023-09-12T14:24:22;16.45;;;9.52;;
76636;SDS011;65532;52.124;5.480;2023-09-12T14:26:51;15.20;;;8.23;;
76636;SDS011;65532;52.124;5.480;2023-09-12T14:29:18;13.20;;;7.25;;
76636;SDS011;65532;52.124;5.480;2023-09-12T14:31:46;14.43;;;8.30;;
76636;SDS011;65532;52.124;5.480;2023-09-12T14:34:18;11.75;;;6.03;;
76636;SDS011;65532;52.124;5.480;2023-09-12T14:36:44;12.90;;;6.75;;
76636;SDS011;65532;52.124;5.480;2023-09-12T14:39:14;12.75;;;5.53;;
76636;SDS011;65532;52.124;5.480;2023-09-12T14:41:41;10.57;;;5.20;;
76636;SDS011;65532;52.124;5.480;2023-09-12T14:44:07;10.98;;;5.75;;
76636;SDS011;65532;52.124;5.480;2023-09-12T14:46:34;12.05;;;6.18;;